createdAt,value
2023-03-02T00:02:18.967Z,8.00
2023-03-02T00:04:50.425Z,8.60
2023-03-02T00:07:22.910Z,9.23
2023-03-02T00:09:49.579Z,8.17
2023-03-02T00:12:16.188Z,7.53
2023-03-02T00:14:43.009Z,7.90
2023-03-02T00:17:10.563Z,8.00
2023-03-02T00:19:37.602Z,8.10
2023-03-02T00:22:04.236Z,6.90
2023-03-02T00:24:30.895Z,8.23
2023-03-02T00:26:57.615Z,8.00
2023-03-02T00:29:24.349Z,6.83
2023-03-02T00:31:51.094Z,7.60
2023-03-02T00:34:17.727Z,7.40
2023-03-02T00:36:44.521Z,6.80
2023-03-02T00:39:11.351Z,7.33
2023-03-02T00:41:37.885Z,7.07
2023-03-02T00:44:04.484Z,8.70
2023-03-02T00:46:31.446Z,6.73
2023-03-02T00:48:58.288Z,7.00
2023-03-02T00:51:25.216Z,7.90
2023-03-02T00:53:51.748Z,7.33
2023-03-02T00:56:18.247Z,7.90
2023-03-02T00:58:44.826Z,7.97
2023-03-02T01:01:12.623Z,7.30
2023-03-02T01:03:39.398Z,7.63
2023-03-02T01:06:06.515Z,7.23
2023-03-02T01:08:33.553Z,7.63
2023-03-02T01:11:01.439Z,7.90
2023-03-02T01:13:29.207Z,8.07
2023-03-02T01:16:02.886Z,7.07
2023-03-02T01:18:29.589Z,6.97
2023-03-02T01:21:09.542Z,7.80
2023-03-02T01:23:36.182Z,7.27
2023-03-02T01:26:03.023Z,7.70
2023-03-02T01:28:29.478Z,6.57
2023-03-02T01:30:56.018Z,6.50
2023-03-02T01:33:22.839Z,7.13
2023-03-02T01:35:49.504Z,6.60
2023-03-02T01:38:16.169Z,6.97
2023-03-02T01:40:42.758Z,7.77
2023-03-02T01:43:14.926Z,6.63
2023-03-02T01:45:48.108Z,7.13
2023-03-02T01:48:16.960Z,7.77
2023-03-02T01:50:43.674Z,7.50
2023-03-02T01:53:10.229Z,7.47
2023-03-02T01:55:38.274Z,6.43
2023-03-02T01:58:06.350Z,8.00
2023-03-02T02:00:37.595Z,7.10
2023-03-02T02:03:23.837Z,6.63
2023-03-02T02:06:17.962Z,6.93
2023-03-02T02:08:46.259Z,6.77
2023-03-02T02:11:13.176Z,6.80
2023-03-02T02:13:40.118Z,6.67
2023-03-02T02:16:07.388Z,6.90
2023-03-02T02:18:36.534Z,7.17
2023-03-02T02:21:04.968Z,8.10
2023-03-02T02:23:40.568Z,7.20
2023-03-02T02:26:21.096Z,7.43
2023-03-02T02:28:51.140Z,7.67
2023-03-02T02:31:23.641Z,6.50
2023-03-02T02:33:53.738Z,7.93
2023-03-02T02:36:23.214Z,7.60
2023-03-02T02:38:53.416Z,6.63
2023-03-02T02:41:23.695Z,7.10
2023-03-02T02:43:50.446Z,7.43
2023-03-02T02:46:17.265Z,6.87
2023-03-02T02:48:43.986Z,8.67
2023-03-02T02:51:15.338Z,7.00
2023-03-02T02:53:50.366Z,8.27
2023-03-02T02:56:17.503Z,8.83
2023-03-02T02:58:46.547Z,7.87
2023-03-02T03:01:15.198Z,8.47
2023-03-02T03:03:44.296Z,6.93
2023-03-02T03:06:17.893Z,6.23
2023-03-02T03:08:44.383Z,7.00
2023-03-02T03:11:13.096Z,8.00
2023-03-02T03:13:41.295Z,7.20
2023-03-02T03:16:10.357Z,6.40
2023-03-02T03:18:36.995Z,6.50
2023-03-02T03:21:03.742Z,7.17
2023-03-02T03:23:30.410Z,6.87
2023-03-02T03:25:57.052Z,6.97
2023-03-02T03:28:23.682Z,6.63
2023-03-02T03:30:50.608Z,7.30
2023-03-02T03:33:17.120Z,7.20
2023-03-02T03:35:43.714Z,6.27
2023-03-02T03:38:10.626Z,6.73
2023-03-02T03:40:37.199Z,7.17
2023-03-02T03:43:04.398Z,7.90
2023-03-02T03:45:31.253Z,6.77
2023-03-02T03:47:58.324Z,6.33
2023-03-02T03:50:25.053Z,6.97
2023-03-02T03:52:51.584Z,5.70
2023-03-02T03:55:19.508Z,7.07
2023-03-02T03:57:46.118Z,5.90
2023-03-02T04:00:15.065Z,6.60
2023-03-02T04:02:42.207Z,6.90
2023-03-02T04:05:09.402Z,7.13
2023-03-02T04:07:37.496Z,6.70
2023-03-02T04:10:06.061Z,6.30
2023-03-02T04:12:34.820Z,5.63
2023-03-02T04:15:01.409Z,6.60
2023-03-02T04:17:28.252Z,6.53
2023-03-02T04:19:54.976Z,5.30
2023-03-02T04:22:21.714Z,6.40
2023-03-02T04:24:50.244Z,6.50
2023-03-02T04:27:17.536Z,6.23
2023-03-02T04:29:44.832Z,6.83
2023-03-02T04:32:11.844Z,7.00
2023-03-02T04:34:38.389Z,8.23
2023-03-02T04:37:05.477Z,7.07
2023-03-02T04:39:32.048Z,7.20
2023-03-02T04:41:58.793Z,6.30
2023-03-02T04:44:25.584Z,6.20
2023-03-02T04:46:52.411Z,6.80
2023-03-02T04:49:19.611Z,6.63
2023-03-02T04:51:48.230Z,6.50
2023-03-02T04:54:18.226Z,7.20
2023-03-02T04:56:48.400Z,7.53
2023-03-02T04:59:25.858Z,7.70
2023-03-02T05:01:57.870Z,6.00
2023-03-02T05:04:24.950Z,6.37
2023-03-02T05:06:51.989Z,6.93
2023-03-02T05:09:19.068Z,6.73
2023-03-02T05:11:45.668Z,6.47
2023-03-02T05:14:13.055Z,7.60
2023-03-02T05:16:41.226Z,7.53
2023-03-02T05:19:10.010Z,6.70
2023-03-02T05:21:36.536Z,6.50
2023-03-02T05:24:03.345Z,6.40
2023-03-02T05:26:30.009Z,6.43
2023-03-02T05:28:56.941Z,7.17
2023-03-02T05:31:30.832Z,6.60
2023-03-02T05:33:57.990Z,6.70
2023-03-02T05:36:24.569Z,6.50
2023-03-02T05:38:51.152Z,6.33
2023-03-02T05:41:18.036Z,7.63
2023-03-02T05:43:44.815Z,6.20
2023-03-02T05:46:11.402Z,6.60
2023-03-02T05:48:37.940Z,6.70
2023-03-02T05:51:04.898Z,6.80
2023-03-02T05:53:31.558Z,6.53
2023-03-02T05:55:58.124Z,7.57
2023-03-02T05:58:24.844Z,6.50
2023-03-02T06:00:51.383Z,5.60
2023-03-02T06:03:18.638Z,6.50
2023-03-02T06:05:45.320Z,6.83
2023-03-02T06:08:11.864Z,7.17
2023-03-02T06:10:38.625Z,7.93
2023-03-02T06:13:05.133Z,7.10
2023-03-02T06:15:31.732Z,7.13
2023-03-02T06:17:58.302Z,7.00
2023-03-02T06:20:25.135Z,5.67
2023-03-02T06:22:51.907Z,6.73
2023-03-02T06:25:20.764Z,7.13
2023-03-02T06:27:51.518Z,6.73
2023-03-02T06:30:22.612Z,7.30
2023-03-02T06:32:49.547Z,7.67
2023-03-02T06:35:16.265Z,7.30
2023-03-02T06:37:44.351Z,7.27
2023-03-02T06:40:13.463Z,7.60
2023-03-02T06:42:41.028Z,7.57
2023-03-02T06:45:09.160Z,8.00
2023-03-02T06:47:35.793Z,6.67
2023-03-02T06:50:02.676Z,8.13
2023-03-02T06:52:29.210Z,7.90
2023-03-02T06:54:55.937Z,7.30
2023-03-02T06:57:22.841Z,9.90
2023-03-02T06:59:49.396Z,9.50
2023-03-02T07:02:16.354Z,9.70
2023-03-02T07:04:43.093Z,10.17
2023-03-02T07:07:09.631Z,9.20
2023-03-02T07:09:36.151Z,9.30
2023-03-02T07:12:02.790Z,9.50
2023-03-02T07:14:29.315Z,10.00
2023-03-02T07:16:57.506Z,8.40
2023-03-02T07:19:24.410Z,9.60
2023-03-02T07:21:50.890Z,8.67
2023-03-02T07:24:17.496Z,7.93
2023-03-02T07:26:44.061Z,7.50
2023-03-02T07:29:10.610Z,7.40
2023-03-02T07:31:37.370Z,7.33
2023-03-02T07:34:03.976Z,8.30
2023-03-02T07:36:30.479Z,8.40
2023-03-02T07:38:57.556Z,9.23
2023-03-02T07:41:24.114Z,8.13
2023-03-02T07:43:50.679Z,8.70
2023-03-02T07:46:17.763Z,7.77
2023-03-02T07:48:44.539Z,7.80
2023-03-02T07:51:11.302Z,7.80
2023-03-02T07:53:38.195Z,9.53
2023-03-02T07:56:09.744Z,8.57
2023-03-02T07:58:37.015Z,7.70
2023-03-02T08:01:04.422Z,7.83
2023-03-02T08:03:31.089Z,8.00
2023-03-02T08:05:57.860Z,8.63
2023-03-02T08:08:24.795Z,8.10
2023-03-02T08:10:51.416Z,7.93
2023-03-02T08:13:17.973Z,7.97
2023-03-02T08:15:44.650Z,8.17
2023-03-02T08:18:11.195Z,7.17
2023-03-02T08:20:38.225Z,8.33
2023-03-02T08:23:04.742Z,7.00
2023-03-02T08:25:31.469Z,7.20
2023-03-02T08:27:58.126Z,7.07
2023-03-02T08:30:24.937Z,7.57
2023-03-02T08:32:51.602Z,7.13
2023-03-02T08:35:18.333Z,6.90
2023-03-02T08:37:44.843Z,6.77
2023-03-02T08:40:11.888Z,7.27
2023-03-02T08:42:38.436Z,7.30
2023-03-02T08:45:05.595Z,5.63
2023-03-02T08:47:32.561Z,5.77
2023-03-02T08:49:59.250Z,7.00
2023-03-02T08:52:25.754Z,7.30
2023-03-02T08:54:52.558Z,6.83
2023-03-02T08:57:21.203Z,6.90
2023-03-02T08:59:47.934Z,7.07
2023-03-02T09:02:14.510Z,6.50
2023-03-02T09:04:41.834Z,5.97
2023-03-02T09:07:09.635Z,7.07
2023-03-02T09:09:36.212Z,6.40
2023-03-02T09:12:03.146Z,6.70
2023-03-02T09:14:29.725Z,6.50
2023-03-02T09:16:56.345Z,6.77
2023-03-02T09:19:22.959Z,6.17
2023-03-02T09:21:49.874Z,6.17
2023-03-02T09:24:16.568Z,6.00
2023-03-02T09:26:43.280Z,5.40
2023-03-02T09:29:10.213Z,5.80
2023-03-02T09:31:37.860Z,6.33
2023-03-02T09:34:05.187Z,6.23
2023-03-02T09:36:32.816Z,5.77
2023-03-02T09:38:59.488Z,6.30
2023-03-02T09:41:34.355Z,5.97
2023-03-02T09:44:01.058Z,6.77
2023-03-02T09:46:34.601Z,7.03
2023-03-02T09:49:07.212Z,6.13
2023-03-02T09:51:47.563Z,6.93
2023-03-02T09:54:19.556Z,6.23
2023-03-02T09:56:48.977Z,5.93
2023-03-02T09:59:26.662Z,6.57
2023-03-02T10:02:01.402Z,6.80
2023-03-02T10:04:31.617Z,5.37
2023-03-02T10:07:09.173Z,5.47
2023-03-02T10:09:35.951Z,6.27
2023-03-02T10:12:20.057Z,5.70
2023-03-02T10:14:55.387Z,6.30
2023-03-02T10:17:37.196Z,5.80
2023-03-02T10:20:08.823Z,6.70
2023-03-02T10:22:39.310Z,6.17
2023-03-02T10:25:15.043Z,6.77
2023-03-02T10:27:50.705Z,6.73
2023-03-02T10:30:19.972Z,6.67
2023-03-02T10:32:50.222Z,6.47
2023-03-02T10:35:18.136Z,5.77
2023-03-02T10:37:45.171Z,6.53
2023-03-02T10:40:29.662Z,6.30
2023-03-02T10:42:56.722Z,6.37
2023-03-02T10:45:28.772Z,6.60
2023-03-02T10:48:05.797Z,5.60
2023-03-02T10:50:33.138Z,6.20
2023-03-02T10:53:01.915Z,6.10
2023-03-02T10:55:29.598Z,5.87
2023-03-02T10:58:05.335Z,6.27
2023-03-02T11:00:34.187Z,6.10
2023-03-02T11:03:03.515Z,5.93
2023-03-02T11:05:44.404Z,5.90
2023-03-02T11:08:16.850Z,6.47
2023-03-02T11:11:01.867Z,6.67
2023-03-02T11:13:28.801Z,5.93
2023-03-02T11:16:22.183Z,6.40
2023-03-02T11:18:54.726Z,5.80
2023-03-02T11:21:36.106Z,6.27
2023-03-02T11:24:22.435Z,5.60
2023-03-02T11:26:55.798Z,5.70
2023-03-02T11:29:42.250Z,5.90
2023-03-02T11:32:09.020Z,5.90
2023-03-02T11:34:48.931Z,6.10
2023-03-02T11:37:24.243Z,5.80
2023-03-02T11:40:09.064Z,5.70
2023-03-02T11:42:44.853Z,5.20
2023-03-02T11:45:15.438Z,5.13
2023-03-02T11:48:02.084Z,5.83
2023-03-02T11:50:31.765Z,5.17
2023-03-02T11:53:02.021Z,4.20
2023-03-02T11:55:34.055Z,5.70
2023-03-02T11:58:03.542Z,5.53
2023-03-02T12:00:39.795Z,5.50
2023-03-02T12:03:07.560Z,5.00
2023-03-02T12:05:36.923Z,4.77
2023-03-02T12:08:20.365Z,5.20
2023-03-02T12:11:19.263Z,5.17
2023-03-02T12:13:48.872Z,4.63
2023-03-02T12:16:43.403Z,5.30
2023-03-02T12:19:39.730Z,5.37
2023-03-02T12:22:10.526Z,5.17
2023-03-02T12:24:38.922Z,5.17
2023-03-02T12:27:25.537Z,5.83
2023-03-02T12:29:56.868Z,4.80
2023-03-02T12:32:30.020Z,5.03
2023-03-02T12:35:00.862Z,4.23
2023-03-02T12:37:42.710Z,4.67
2023-03-02T12:40:12.356Z,6.17
2023-03-02T12:42:47.989Z,5.20
2023-03-02T12:45:32.628Z,5.37
2023-03-02T12:48:04.064Z,4.90
2023-03-02T12:50:32.758Z,5.10
2023-03-02T12:53:01.664Z,5.23
2023-03-02T12:55:28.251Z,4.90
2023-03-02T12:57:57.954Z,5.83
2023-03-02T13:00:28.517Z,5.70
2023-03-02T13:02:57.043Z,6.10
2023-03-02T13:05:29.183Z,6.40
2023-03-02T13:08:07.593Z,5.53
2023-03-02T13:10:38.094Z,5.57
2023-03-02T13:13:33.131Z,5.60
2023-03-02T13:16:02.134Z,5.67
2023-03-02T13:18:33.763Z,5.50
2023-03-02T13:21:01.651Z,5.57
2023-03-02T13:23:30.444Z,5.77
2023-03-02T13:25:59.192Z,5.47
2023-03-02T13:28:27.713Z,5.10
2023-03-02T13:31:03.771Z,5.17
2023-03-02T13:33:32.188Z,5.20
2023-03-02T13:35:59.217Z,5.30
2023-03-02T13:38:30.325Z,5.03
2023-03-02T13:40:57.689Z,5.20
2023-03-02T13:43:30.504Z,5.40
2023-03-02T13:46:01.984Z,6.17
2023-03-02T13:48:30.733Z,6.17
2023-03-02T13:50:59.251Z,5.50
2023-03-02T13:53:27.605Z,5.13
2023-03-02T13:55:54.820Z,4.97
2023-03-02T13:58:22.874Z,5.80
2023-03-02T14:00:50.126Z,5.20
2023-03-02T14:03:29.100Z,5.40
2023-03-02T14:05:56.708Z,5.60
2023-03-02T14:08:23.511Z,5.83
2023-03-02T14:10:52.759Z,5.20
2023-03-02T14:13:23.270Z,5.83
2023-03-02T14:15:52.479Z,5.83
2023-03-02T14:18:39.552Z,5.90
2023-03-02T14:21:12.522Z,6.00
2023-03-02T14:23:41.141Z,6.30
2023-03-02T14:26:35.175Z,6.80
2023-03-02T14:29:07.189Z,5.00
2023-03-02T14:31:34.810Z,5.87
2023-03-02T14:34:01.828Z,6.07
2023-03-02T14:36:33.801Z,6.33
2023-03-02T14:39:04.427Z,6.07
2023-03-02T14:41:34.434Z,5.97
2023-03-02T14:44:04.993Z,5.60
2023-03-02T14:46:31.629Z,6.00
2023-03-02T14:48:58.179Z,5.87
2023-03-02T14:51:27.077Z,6.30
2023-03-02T14:53:55.715Z,5.03
2023-03-02T14:56:25.116Z,6.17
2023-03-02T14:58:52.521Z,6.60
2023-03-02T15:01:20.050Z,6.93
2023-03-02T15:03:47.119Z,7.50
2023-03-02T15:06:26.064Z,6.20
2023-03-02T15:09:00.096Z,6.63
2023-03-02T15:11:27.593Z,8.33
2023-03-02T15:13:54.715Z,8.97
2023-03-02T15:16:21.838Z,10.07
2023-03-02T15:18:50.023Z,11.10
2023-03-02T15:21:24.549Z,10.37
2023-03-02T15:23:51.469Z,9.63
2023-03-02T15:26:18.272Z,9.73
2023-03-02T15:28:45.640Z,10.13
2023-03-02T15:31:17.632Z,11.30
2023-03-02T15:33:47.612Z,12.03
2023-03-02T15:36:14.587Z,11.13
2023-03-02T15:38:41.513Z,11.57
2023-03-02T15:41:12.363Z,10.50
2023-03-02T15:43:39.406Z,11.37
2023-03-02T15:46:06.994Z,10.90
2023-03-02T15:48:33.564Z,10.53
2023-03-02T15:51:05.168Z,8.63
2023-03-02T15:53:36.063Z,10.50
2023-03-02T15:56:09.052Z,12.40
2023-03-02T15:58:35.707Z,12.95
2023-03-02T16:01:12.774Z,12.00
2023-03-02T16:03:39.419Z,11.83
2023-03-02T16:06:08.656Z,11.90
2023-03-02T16:08:36.138Z,12.77
2023-03-02T16:11:05.964Z,12.03
2023-03-02T16:13:32.681Z,12.20
2023-03-02T16:16:04.695Z,13.10
2023-03-02T16:18:31.448Z,13.20
2023-03-02T16:20:58.274Z,13.20
2023-03-02T16:23:24.940Z,12.37
2023-03-02T16:25:52.503Z,11.50
2023-03-02T16:28:19.585Z,13.37
2023-03-02T16:30:46.761Z,12.60
2023-03-02T16:33:17.131Z,13.13
2023-03-02T16:35:44.669Z,13.17
2023-03-02T16:38:11.192Z,13.87
2023-03-02T16:40:40.119Z,15.63
2023-03-02T16:43:08.979Z,16.53
2023-03-02T16:45:35.898Z,13.60
2023-03-02T16:48:03.613Z,13.00
2023-03-02T16:50:30.748Z,15.53
2023-03-02T16:52:58.732Z,15.40
2023-03-02T16:55:25.757Z,15.73
2023-03-02T16:57:52.476Z,15.50
2023-03-02T17:00:20.152Z,16.17
2023-03-02T17:02:47.039Z,16.73
2023-03-02T17:05:15.469Z,17.50
2023-03-02T17:07:42.048Z,23.13
2023-03-02T17:10:14.089Z,92.17
2023-03-02T17:12:40.823Z,278.37
2023-03-02T17:15:08.227Z,36.23
2023-03-02T17:17:34.741Z,22.40
2023-03-02T17:20:01.245Z,19.50
2023-03-02T17:22:27.751Z,19.57
2023-03-02T17:24:54.281Z,19.57
2023-03-02T17:27:25.236Z,20.53
2023-03-02T17:29:52.389Z,19.50
2023-03-02T17:32:19.231Z,17.90
2023-03-02T17:34:46.416Z,18.37
2023-03-02T17:37:13.373Z,18.60
2023-03-02T17:39:40.348Z,17.13
2023-03-02T17:42:07.276Z,19.10
2023-03-02T17:44:34.628Z,16.70
2023-03-02T17:47:03.852Z,17.80
2023-03-02T17:49:31.040Z,18.23
2023-03-02T17:51:57.895Z,19.20
2023-03-02T17:54:24.516Z,18.20
2023-03-02T17:56:51.094Z,16.33
2023-03-02T17:59:17.727Z,18.87
2023-03-02T18:01:44.562Z,18.83
2023-03-02T18:04:11.697Z,18.97
2023-03-02T18:06:38.256Z,20.50
2023-03-02T18:09:05.128Z,19.87
2023-03-02T18:11:32.292Z,19.60
2023-03-02T18:13:59.381Z,20.13
2023-03-02T18:16:28.067Z,19.10
2023-03-02T18:18:55.766Z,19.40
2023-03-02T18:21:22.844Z,21.43
2023-03-02T18:23:49.426Z,19.37
2023-03-02T18:26:16.572Z,21.30
2023-03-02T18:28:43.149Z,21.40
2023-03-02T18:31:11.332Z,20.80
2023-03-02T18:33:37.954Z,20.87
2023-03-02T18:36:05.469Z,21.67
2023-03-02T18:38:33.471Z,22.83
2023-03-02T18:41:03.000Z,21.80
2023-03-02T18:43:31.664Z,22.00
2023-03-02T18:45:58.312Z,21.30
2023-03-02T18:48:25.237Z,23.23
2023-03-02T18:50:52.256Z,23.73
2023-03-02T18:53:18.954Z,23.53
2023-03-02T18:55:45.755Z,22.83
2023-03-02T18:58:20.538Z,22.23
2023-03-02T19:00:47.943Z,22.03
2023-03-02T19:03:16.425Z,22.80
2023-03-02T19:05:43.575Z,22.77
2023-03-02T19:08:10.707Z,21.33
2023-03-02T19:10:38.478Z,23.00
2023-03-02T19:13:05.637Z,23.40
2023-03-02T19:15:34.773Z,23.97
2023-03-02T19:18:01.473Z,23.83
2023-03-02T19:20:28.472Z,24.10
2023-03-02T19:22:55.345Z,24.27
2023-03-02T19:25:22.541Z,24.10
2023-03-02T19:27:49.076Z,25.67
2023-03-02T19:30:25.022Z,25.00
2023-03-02T19:32:54.034Z,24.27
2023-03-02T19:35:22.992Z,23.33
2023-03-02T19:37:49.750Z,26.07
2023-03-02T19:40:17.858Z,25.20
2023-03-02T19:42:45.574Z,27.20
2023-03-02T19:45:16.193Z,25.17
2023-03-02T19:47:43.184Z,27.73
2023-03-02T19:50:10.330Z,28.00
2023-03-02T19:52:38.347Z,26.73
2023-03-02T19:55:06.816Z,26.50
2023-03-02T19:57:33.587Z,25.70
2023-03-02T20:00:00.213Z,24.13
2023-03-02T20:02:37.322Z,26.07
2023-03-02T20:05:04.403Z,26.60
2023-03-02T20:07:31.273Z,26.17
2023-03-02T20:09:58.168Z,26.70
2023-03-02T20:12:24.731Z,26.80
2023-03-02T20:14:52.884Z,27.07
2023-03-02T20:17:20.249Z,28.70
2023-03-02T20:19:47.659Z,28.67
2023-03-02T20:22:14.443Z,26.07
2023-03-02T20:24:42.293Z,27.13
2023-03-02T20:27:11.540Z,29.63
2023-03-02T20:29:41.026Z,25.00
2023-03-02T20:32:09.179Z,24.73
2023-03-02T20:34:37.019Z,26.83
2023-03-02T20:37:04.977Z,26.60
2023-03-02T20:39:34.344Z,28.00
2023-03-02T20:42:01.356Z,28.17
2023-03-02T20:44:31.056Z,26.63
2023-03-02T20:47:00.428Z,28.43
2023-03-02T20:49:29.420Z,27.90
2023-03-02T20:51:59.272Z,27.80
2023-03-02T20:54:30.045Z,28.00
2023-03-02T20:56:57.062Z,29.53
2023-03-02T20:59:24.311Z,28.70
2023-03-02T21:01:51.609Z,29.57
2023-03-02T21:04:18.365Z,29.63
2023-03-02T21:06:46.219Z,30.97
2023-03-02T21:09:13.639Z,31.90
2023-03-02T21:11:40.716Z,31.70
2023-03-02T21:14:07.557Z,29.47
2023-03-02T21:16:39.181Z,32.47
2023-03-02T21:19:08.943Z,31.27
2023-03-02T21:21:41.871Z,29.53
2023-03-02T21:24:10.776Z,30.87
2023-03-02T21:26:37.786Z,29.77
2023-03-02T21:29:05.653Z,32.37
2023-03-02T21:31:32.756Z,33.00
2023-03-02T21:34:00.250Z,31.33
2023-03-02T21:36:27.798Z,30.67
2023-03-02T21:38:54.644Z,32.00
2023-03-02T21:41:21.492Z,32.53
2023-03-02T21:43:48.564Z,31.23
2023-03-02T21:46:18.203Z,33.23
2023-03-02T21:48:45.208Z,32.97
2023-03-02T21:51:13.292Z,33.00
2023-03-02T21:53:40.267Z,33.30
2023-03-02T21:56:07.584Z,33.60
2023-03-02T21:58:34.652Z,33.73
2023-03-02T22:01:01.186Z,34.17
2023-03-02T22:03:28.243Z,32.97
2023-03-02T22:05:54.822Z,31.73
2023-03-02T22:08:21.719Z,31.60
2023-03-02T22:10:50.322Z,31.63
2023-03-02T22:13:23.393Z,31.93
2023-03-02T22:15:56.761Z,32.67
2023-03-02T22:18:25.743Z,32.47
2023-03-02T22:20:52.735Z,35.10
2023-03-02T22:23:22.534Z,34.27
2023-03-02T22:25:52.452Z,35.67
2023-03-02T22:28:23.435Z,34.90
2023-03-02T22:30:51.422Z,36.17
2023-03-02T22:33:19.852Z,35.50
2023-03-02T22:35:47.609Z,34.30
2023-03-02T22:38:24.234Z,35.40
2023-03-02T22:40:51.775Z,35.30
2023-03-02T22:43:31.168Z,35.40
2023-03-02T22:46:20.246Z,37.43
2023-03-02T22:48:48.810Z,34.70
2023-03-02T22:51:21.319Z,32.77
2023-03-02T22:53:59.528Z,32.03
2023-03-02T22:56:36.027Z,32.53
2023-03-02T22:59:21.520Z,32.67
2023-03-02T23:01:48.874Z,32.57
2023-03-02T23:04:26.836Z,32.60
2023-03-02T23:06:55.763Z,32.23
2023-03-02T23:09:31.084Z,32.03
2023-03-02T23:12:00.418Z,31.87
2023-03-02T23:14:28.999Z,33.20
2023-03-02T23:17:16.928Z,33.90
2023-03-02T23:19:43.947Z,35.10
2023-03-02T23:22:11.086Z,33.93
2023-03-02T23:24:37.971Z,30.60
2023-03-02T23:27:05.044Z,35.53
2023-03-02T23:29:32.067Z,31.13
2023-03-02T23:31:58.756Z,33.83
2023-03-02T23:34:26.168Z,32.07
2023-03-02T23:36:52.696Z,32.37
2023-03-02T23:39:19.295Z,30.70
2023-03-02T23:41:46.057Z,29.50
2023-03-02T23:44:12.634Z,30.77
2023-03-02T23:46:39.384Z,29.50
2023-03-02T23:49:05.964Z,29.27
2023-03-02T23:51:33.184Z,29.17
2023-03-02T23:53:59.821Z,31.23
2023-03-02T23:56:26.387Z,30.63
2023-03-02T23:58:53.043Z,29.47
